createdAt,value
2018-07-07T00:00:43.178Z,55.40
2018-07-07T00:01:43.108Z,54.70
2018-07-07T00:02:43.132Z,56.30
2018-07-07T00:03:43.152Z,58.80
2018-07-07T00:04:43.141Z,57.60
2018-07-07T00:05:43.326Z,58.20
2018-07-07T00:06:43.178Z,56.10
2018-07-07T00:07:43.181Z,57.30
2018-07-07T00:08:43.226Z,57.90
2018-07-07T00:09:43.214Z,58.50
2018-07-07T00:10:43.358Z,58.50
2018-07-07T00:11:43.266Z,59.90
2018-07-07T00:12:43.256Z,60.40
2018-07-07T00:13:43.267Z,61.70
2018-07-07T00:14:43.296Z,62.20
2018-07-07T00:15:43.474Z,61.10
2018-07-07T00:16:43.310Z,61.80
2018-07-07T00:17:43.353Z,62.00
2018-07-07T00:18:43.340Z,61.00
2018-07-07T00:19:43.361Z,62.50
2018-07-07T00:20:43.484Z,63.10
2018-07-07T00:21:43.391Z,61.30
2018-07-07T00:22:43.396Z,61.20
2018-07-07T00:23:43.431Z,61.80
2018-07-07T00:24:43.436Z,62.30
2018-07-07T00:25:43.598Z,59.80
2018-07-07T00:26:43.485Z,62.60
2018-07-07T00:27:43.474Z,63.80
2018-07-07T00:28:43.514Z,65.70
2018-07-07T00:29:43.504Z,68.00
2018-07-07T00:30:43.667Z,65.70
2018-07-07T00:31:43.557Z,66.20
2018-07-07T00:32:43.563Z,62.70
2018-07-07T00:33:43.577Z,62.60
2018-07-07T00:34:43.585Z,63.10
2018-07-07T00:35:43.689Z,63.90
2018-07-07T00:36:43.629Z,65.60
2018-07-07T00:37:43.624Z,68.50
2018-07-07T00:38:43.662Z,67.90
2018-07-07T00:39:43.672Z,67.10
2018-07-07T00:40:43.806Z,66.90
2018-07-07T00:41:43.680Z,66.40
2018-07-07T00:42:43.689Z,66.40
2018-07-07T00:43:43.704Z,68.90
2018-07-07T00:44:43.716Z,65.50
2018-07-07T00:45:43.730Z,67.70
2018-07-07T00:46:43.904Z,64.30
2018-07-07T00:47:43.760Z,64.40
2018-07-07T00:48:43.800Z,63.40
2018-07-07T00:49:43.786Z,69.20
2018-07-07T00:50:43.798Z,65.40
2018-07-07T00:51:43.827Z,64.40
2018-07-07T00:52:43.932Z,65.80
2018-07-07T00:53:43.876Z,66.70
2018-07-07T00:54:43.872Z,64.90
2018-07-07T00:55:43.873Z,68.00
2018-07-07T00:56:43.890Z,68.30
2018-07-07T00:57:44.076Z,68.90
2018-07-07T00:58:43.918Z,66.20
2018-07-07T00:59:43.930Z,68.90
2018-07-07T01:00:43.970Z,75.50
2018-07-07T01:01:43.972Z,69.30
2018-07-07T01:02:44.122Z,70.00
2018-07-07T01:03:43.984Z,68.50
2018-07-07T01:04:44.010Z,67.70
2018-07-07T01:05:44.014Z,73.30
2018-07-07T01:06:44.031Z,75.50
2018-07-07T01:07:44.042Z,71.30
2018-07-07T01:08:44.054Z,72.40
2018-07-07T01:09:44.073Z,75.20
2018-07-07T01:10:44.086Z,73.00
2018-07-07T01:11:44.104Z,74.00
2018-07-07T01:12:44.118Z,76.10
2018-07-07T01:13:44.133Z,77.30
2018-07-07T01:14:44.146Z,78.70
2018-07-07T01:15:44.177Z,80.60
2018-07-07T01:16:44.168Z,82.80
2018-07-07T01:17:44.315Z,78.00
2018-07-07T01:18:44.196Z,77.50
2018-07-07T01:19:44.209Z,74.40
2018-07-07T01:20:44.249Z,78.10
2018-07-07T01:21:44.238Z,79.50
2018-07-07T01:22:44.257Z,78.70
2018-07-07T01:23:44.275Z,78.70
2018-07-07T01:24:44.286Z,77.30
2018-07-07T01:25:44.305Z,81.30
2018-07-07T01:26:44.330Z,83.20
2018-07-07T01:27:44.321Z,83.50
2018-07-07T01:28:44.335Z,82.30
2018-07-07T01:29:44.351Z,86.10
2018-07-07T01:30:44.388Z,88.40
2018-07-07T01:31:44.373Z,85.40
2018-07-07T01:32:44.421Z,83.20
2018-07-07T01:33:44.435Z,81.80
2018-07-07T01:34:44.418Z,80.60
2018-07-07T01:35:44.430Z,79.30
2018-07-07T01:36:44.472Z,103.00
2018-07-07T01:37:44.641Z,87.30
2018-07-07T01:38:44.466Z,88.40
2018-07-07T01:39:44.513Z,95.80
2018-07-07T01:40:44.500Z,100.00
2018-07-07T01:41:44.528Z,106.10
2018-07-07T01:42:44.701Z,130.30
2018-07-07T01:43:44.570Z,126.30
2018-07-07T01:44:44.560Z,94.60
2018-07-07T01:45:44.569Z,90.90
2018-07-07T01:46:44.592Z,91.00
2018-07-07T01:47:44.778Z,99.20
2018-07-07T01:48:44.705Z,97.90
2018-07-07T01:49:44.664Z,115.40
2018-07-07T01:50:44.656Z,127.50
2018-07-07T01:51:44.654Z,140.00
2018-07-07T01:52:44.767Z,117.30
2018-07-07T01:53:44.706Z,105.70
2018-07-07T01:54:44.698Z,97.90
2018-07-07T01:55:44.704Z,91.20
2018-07-07T01:56:44.720Z,91.60
2018-07-07T01:57:44.831Z,93.80
2018-07-07T01:58:44.755Z,98.20
2018-07-07T01:59:44.784Z,97.30
2018-07-07T02:00:44.774Z,100.00
2018-07-07T02:01:44.788Z,99.90
2018-07-07T02:02:44.925Z,103.60
2018-07-07T02:03:44.828Z,101.20
2018-07-07T02:04:44.834Z,102.70
2018-07-07T02:05:44.875Z,99.60
2018-07-07T02:06:44.854Z,95.10
2018-07-07T02:07:45.032Z,90.20
2018-07-07T02:08:44.913Z,91.50
2018-07-07T02:09:44.895Z,94.20
2018-07-07T02:10:44.932Z,93.40
2018-07-07T02:11:44.936Z,94.00
2018-07-07T02:12:45.113Z,93.40
2018-07-07T02:13:44.960Z,96.40
2018-07-07T02:14:44.989Z,95.90
2018-07-07T02:15:44.977Z,88.40
2018-07-07T02:16:45.020Z,94.20
2018-07-07T02:17:45.167Z,95.10
2018-07-07T02:18:45.082Z,100.30
2018-07-07T02:19:45.031Z,98.60
2018-07-07T02:20:45.053Z,103.50
2018-07-07T02:21:45.054Z,102.50
2018-07-07T02:22:45.196Z,103.80
2018-07-07T02:23:45.081Z,99.90
2018-07-07T02:24:45.096Z,103.40
2018-07-07T02:25:45.115Z,102.40
2018-07-07T02:26:45.117Z,98.50
2018-07-07T02:27:45.263Z,102.10
2018-07-07T02:28:45.179Z,102.70
2018-07-07T02:29:45.166Z,98.90
2018-07-07T02:30:45.203Z,90.60
2018-07-07T02:31:45.202Z,101.80
2018-07-07T02:32:45.303Z,102.60
2018-07-07T02:33:45.250Z,111.10
2018-07-07T02:34:45.229Z,108.00
2018-07-07T02:35:45.239Z,106.60
2018-07-07T02:36:45.266Z,105.60
2018-07-07T02:37:45.443Z,107.40
2018-07-07T02:38:45.284Z,106.20
2018-07-07T02:39:45.319Z,106.10
2018-07-07T02:40:45.322Z,99.10
2018-07-07T02:41:45.333Z,99.50
2018-07-07T02:42:45.358Z,100.90
2018-07-07T02:43:45.352Z,106.70
2018-07-07T02:44:45.365Z,104.70
2018-07-07T02:45:45.374Z,106.40
2018-07-07T02:46:45.389Z,100.50
2018-07-07T02:47:45.404Z,105.50
2018-07-07T02:48:45.410Z,102.20
2018-07-07T02:49:45.431Z,99.70
2018-07-07T02:50:45.448Z,102.80
2018-07-07T02:51:45.482Z,100.50
2018-07-07T02:52:45.491Z,98.40
2018-07-07T02:53:45.505Z,100.00
2018-07-07T02:54:45.507Z,101.20
2018-07-07T02:55:45.526Z,112.30
2018-07-07T02:56:45.543Z,110.50
2018-07-07T02:57:45.534Z,109.50
2018-07-07T02:58:45.538Z,105.90
2018-07-07T02:59:45.551Z,117.00
2018-07-07T03:00:45.565Z,116.30
2018-07-07T03:01:45.594Z,116.50
2018-07-07T03:02:45.604Z,110.80
2018-07-07T03:03:45.608Z,107.60
2018-07-07T03:04:45.623Z,117.30
2018-07-07T03:05:45.641Z,112.50
2018-07-07T03:06:45.670Z,109.00
2018-07-07T03:07:45.694Z,114.10
2018-07-07T03:08:45.679Z,117.00
2018-07-07T03:09:45.689Z,116.50
2018-07-07T03:10:45.692Z,109.80
2018-07-07T03:11:45.733Z,130.40
2018-07-07T03:12:45.726Z,126.60
2018-07-07T03:13:45.739Z,129.90
2018-07-07T03:14:45.773Z,126.40
2018-07-07T03:15:45.784Z,131.00
2018-07-07T03:16:45.770Z,129.30
2018-07-07T03:17:45.882Z,126.40
2018-07-07T03:18:45.796Z,134.60
2018-07-07T03:19:45.839Z,137.40
2018-07-07T03:20:45.817Z,139.50
2018-07-07T03:21:45.862Z,134.50
2018-07-07T03:22:45.873Z,132.10
2018-07-07T03:23:45.863Z,134.00
2018-07-07T03:24:45.887Z,136.40
2018-07-07T03:25:45.884Z,134.10
2018-07-07T03:26:45.904Z,132.30
2018-07-07T03:27:46.025Z,135.10
2018-07-07T03:28:45.934Z,134.80
2018-07-07T03:29:45.938Z,134.50
2018-07-07T03:30:45.945Z,132.70
2018-07-07T03:31:45.961Z,134.00
2018-07-07T03:32:45.976Z,134.70
2018-07-07T03:33:45.986Z,136.60
2018-07-07T03:34:45.998Z,135.00
2018-07-07T03:35:46.007Z,135.10
2018-07-07T03:36:46.035Z,137.20
2018-07-07T03:37:46.042Z,138.60
2018-07-07T03:38:46.052Z,136.10
2018-07-07T03:39:46.065Z,135.70
2018-07-07T03:40:46.078Z,132.70
2018-07-07T03:41:46.121Z,137.00
2018-07-07T03:42:46.094Z,135.60
2018-07-07T03:43:46.115Z,130.60
2018-07-07T03:44:46.128Z,129.80
2018-07-07T03:45:46.167Z,134.00
2018-07-07T03:46:46.152Z,131.70
2018-07-07T03:47:46.173Z,139.80
2018-07-07T03:48:46.191Z,137.90
2018-07-07T03:49:46.216Z,167.30
2018-07-07T03:50:46.205Z,205.00
2018-07-07T03:51:46.243Z,215.60
2018-07-07T03:52:46.236Z,220.00
2018-07-07T03:53:46.266Z,190.90
2018-07-07T03:54:46.251Z,215.00
2018-07-07T03:55:46.266Z,178.40
2018-07-07T03:56:46.304Z,146.70
2018-07-07T03:57:46.302Z,151.60
2018-07-07T03:58:46.300Z,158.10
2018-07-07T03:59:46.343Z,138.80
2018-07-07T04:00:46.329Z,150.30
2018-07-07T04:01:46.339Z,140.90
2018-07-07T04:02:46.363Z,137.00
2018-07-07T04:03:46.393Z,141.30
2018-07-07T04:04:46.380Z,141.30
2018-07-07T04:05:46.392Z,140.30
2018-07-07T04:06:46.430Z,131.80
2018-07-07T04:07:46.421Z,130.80
2018-07-07T04:08:46.424Z,129.60
2018-07-07T04:09:46.438Z,127.20
2018-07-07T04:10:46.458Z,130.30
2018-07-07T04:11:46.461Z,124.30
2018-07-07T04:12:46.499Z,129.40
2018-07-07T04:13:46.490Z,132.70
2018-07-07T04:14:46.503Z,132.10
2018-07-07T04:15:46.528Z,131.40
2018-07-07T04:16:46.555Z,131.40
2018-07-07T04:18:46.581Z,131.50
2018-07-07T04:19:46.569Z,129.60
2018-07-07T04:20:46.590Z,131.50
2018-07-07T04:21:46.584Z,126.50
2018-07-07T04:22:46.624Z,131.00
2018-07-07T04:23:46.616Z,127.90
2018-07-07T04:24:46.621Z,123.00
2018-07-07T04:25:46.660Z,120.60
2018-07-07T04:26:46.674Z,122.50
2018-07-07T04:27:46.666Z,118.30
2018-07-07T04:28:46.669Z,118.10
2018-07-07T04:29:46.681Z,119.10
2018-07-07T04:30:46.697Z,118.40
2018-07-07T04:31:46.714Z,115.10
2018-07-07T04:32:46.730Z,107.40
2018-07-07T04:33:46.747Z,107.30
2018-07-07T04:34:46.741Z,101.40
2018-07-07T04:35:46.788Z,102.80
2018-07-07T04:36:46.795Z,96.50
2018-07-07T04:37:46.795Z,97.50
2018-07-07T04:38:46.816Z,97.30
2018-07-07T04:39:46.809Z,98.00
2018-07-07T04:40:46.823Z,94.00
2018-07-07T04:41:46.841Z,91.80
2018-07-07T04:42:46.833Z,84.70
2018-07-07T04:43:46.865Z,76.10
2018-07-07T04:44:46.886Z,69.80
2018-07-07T04:45:46.909Z,64.90
2018-07-07T04:46:46.912Z,63.70
2018-07-07T04:47:47.053Z,59.10
2018-07-07T04:48:46.920Z,59.40
2018-07-07T04:49:46.924Z,60.40
2018-07-07T04:50:46.936Z,59.40
2018-07-07T04:51:46.948Z,60.10
2018-07-07T04:52:47.113Z,59.70
2018-07-07T04:53:46.972Z,57.00
2018-07-07T04:54:46.989Z,59.50
2018-07-07T04:55:47.024Z,59.90
2018-07-07T04:56:47.008Z,58.00
2018-07-07T04:57:47.179Z,60.50
2018-07-07T04:58:47.035Z,62.10
2018-07-07T04:59:47.047Z,59.70
2018-07-07T05:00:47.058Z,58.80
2018-07-07T05:01:47.078Z,55.40
2018-07-07T05:02:47.198Z,54.70
2018-07-07T05:03:47.104Z,56.40
2018-07-07T05:04:47.110Z,56.00
2018-07-07T05:05:47.150Z,56.50
2018-07-07T05:06:47.140Z,56.30
2018-07-07T05:07:47.296Z,56.80
2018-07-07T05:08:47.185Z,58.40
2018-07-07T05:09:47.176Z,56.80
2018-07-07T05:10:47.211Z,57.60
2018-07-07T05:11:47.223Z,57.20
2018-07-07T05:12:47.317Z,57.60
2018-07-07T05:13:47.221Z,57.30
2018-07-07T05:14:47.232Z,56.30
2018-07-07T05:15:47.247Z,56.60
2018-07-07T05:16:47.288Z,57.00
2018-07-07T05:17:47.434Z,56.90
2018-07-07T05:18:47.285Z,58.90
2018-07-07T05:19:47.294Z,56.50
2018-07-07T05:20:47.303Z,58.70
2018-07-07T05:21:47.348Z,58.40
2018-07-07T05:22:47.459Z,58.90
2018-07-07T05:23:47.357Z,59.20
2018-07-07T05:24:47.355Z,58.40
2018-07-07T05:25:47.367Z,57.40
2018-07-07T05:26:47.381Z,56.50
2018-07-07T05:27:47.521Z,57.20
2018-07-07T05:28:47.406Z,56.20
2018-07-07T05:29:47.447Z,57.80
2018-07-07T05:30:47.430Z,57.70
2018-07-07T05:31:47.530Z,59.30
2018-07-07T05:32:47.580Z,58.30
2018-07-07T05:33:47.499Z,59.80
2018-07-07T05:34:47.477Z,65.10
2018-07-07T05:35:47.525Z,62.40
2018-07-07T05:36:47.532Z,66.40
2018-07-07T05:37:47.631Z,65.40
2018-07-07T05:38:47.542Z,65.30
2018-07-07T05:39:47.568Z,67.10
2018-07-07T05:40:47.586Z,68.40
2018-07-07T05:41:47.564Z,68.90
2018-07-07T05:42:47.735Z,68.50
2018-07-07T05:43:47.623Z,65.80
2018-07-07T05:44:47.630Z,65.20
2018-07-07T05:45:47.620Z,66.80
2018-07-07T05:46:47.661Z,61.10
2018-07-07T05:47:47.676Z,59.90
2018-07-07T05:48:47.780Z,60.70
2018-07-07T05:49:47.681Z,59.20
2018-07-07T05:50:47.682Z,60.90
2018-07-07T05:51:47.706Z,60.00
2018-07-07T05:52:47.728Z,58.20
2018-07-07T05:53:47.724Z,58.30
2018-07-07T05:54:47.825Z,53.20
2018-07-07T05:55:47.741Z,54.60
2018-07-07T05:56:47.765Z,54.20
2018-07-07T05:57:47.777Z,51.60
2018-07-07T05:58:47.791Z,50.50
2018-07-07T05:59:47.952Z,51.80
2018-07-07T06:00:47.801Z,49.60
2018-07-07T06:01:47.813Z,49.50
2018-07-07T06:02:47.852Z,50.30
2018-07-07T06:03:47.850Z,50.20
2018-07-07T06:04:47.980Z,49.80
2018-07-07T06:05:47.898Z,55.80
2018-07-07T06:06:47.904Z,54.80
2018-07-07T06:07:47.896Z,54.80
2018-07-07T06:08:47.900Z,56.40
2018-07-07T06:09:48.048Z,54.00
2018-07-07T06:10:47.923Z,53.00
2018-07-07T06:11:47.958Z,53.80
2018-07-07T06:12:47.952Z,56.20
2018-07-07T06:13:47.967Z,55.80
2018-07-07T06:14:48.134Z,57.70
2018-07-07T06:15:47.988Z,57.70
2018-07-07T06:16:48.011Z,56.80
2018-07-07T06:17:48.014Z,58.20
2018-07-07T06:18:48.029Z,59.90
2018-07-07T06:19:48.197Z,61.00
2018-07-07T06:20:48.076Z,63.50
2018-07-07T06:21:48.105Z,63.30
2018-07-07T06:22:48.080Z,65.00
2018-07-07T06:23:48.093Z,70.70
2018-07-07T06:24:48.279Z,70.10
2018-07-07T06:25:48.120Z,69.40
2018-07-07T06:26:48.172Z,70.30
2018-07-07T06:27:48.166Z,70.50
2018-07-07T06:28:48.148Z,76.80
2018-07-07T06:29:48.271Z,74.00
2018-07-07T06:30:48.203Z,77.30
2018-07-07T06:31:48.190Z,78.40
2018-07-07T06:32:48.234Z,81.00
2018-07-07T06:33:48.215Z,75.40
2018-07-07T06:34:48.376Z,78.50
2018-07-07T06:35:48.238Z,74.70
2018-07-07T06:36:48.278Z,73.90
2018-07-07T06:37:48.266Z,74.30
2018-07-07T06:38:48.287Z,71.30
2018-07-07T06:39:48.459Z,69.00
2018-07-07T06:40:48.330Z,68.70
2018-07-07T06:41:48.315Z,66.50
2018-07-07T06:42:48.326Z,67.80
2018-07-07T06:43:48.366Z,65.50
2018-07-07T06:44:48.524Z,67.20
2018-07-07T06:45:48.374Z,71.10
2018-07-07T06:46:48.378Z,68.50
2018-07-07T06:47:48.406Z,70.90
2018-07-07T06:48:48.432Z,72.60
2018-07-07T06:49:48.596Z,71.10
2018-07-07T06:50:48.425Z,71.70
2018-07-07T06:51:48.464Z,71.90
2018-07-07T06:52:48.456Z,71.90
2018-07-07T06:53:48.556Z,71.20
2018-07-07T06:54:48.624Z,71.10
2018-07-07T06:55:48.490Z,70.70
2018-07-07T06:56:48.501Z,70.90
2018-07-07T06:57:48.514Z,70.60
2018-07-07T06:58:48.539Z,71.00
2018-07-07T06:59:48.641Z,74.40
2018-07-07T07:00:48.550Z,71.50
2018-07-07T07:01:48.586Z,70.00
2018-07-07T07:02:48.605Z,73.40
2018-07-07T07:03:48.587Z,74.80
2018-07-07T07:04:48.781Z,74.40
2018-07-07T07:05:48.608Z,73.00
2018-07-07T07:06:48.624Z,78.60
2018-07-07T07:07:48.633Z,79.20
2018-07-07T07:08:48.642Z,83.30
2018-07-07T07:09:48.658Z,83.90
2018-07-07T07:10:48.769Z,88.00
2018-07-07T07:11:48.699Z,95.60
2018-07-07T07:12:48.722Z,98.40
2018-07-07T07:13:48.723Z,100.50
2018-07-07T07:14:48.755Z,99.60
2018-07-07T07:15:48.890Z,103.40
2018-07-07T07:16:48.748Z,103.90
2018-07-07T07:17:48.783Z,101.70
2018-07-07T07:18:48.798Z,103.20
2018-07-07T07:19:48.812Z,105.20
2018-07-07T07:20:48.910Z,102.00
2018-07-07T07:21:48.826Z,101.70
2018-07-07T07:22:48.835Z,99.70
2018-07-07T07:23:48.831Z,98.90
2018-07-07T07:24:48.843Z,100.40
2018-07-07T07:25:49.035Z,99.10
2018-07-07T07:26:48.876Z,94.50
2018-07-07T07:27:48.879Z,94.90
2018-07-07T07:28:48.893Z,90.80
2018-07-07T07:29:48.930Z,92.90
2018-07-07T07:30:49.092Z,93.70
2018-07-07T07:31:48.955Z,92.30
2018-07-07T07:32:48.944Z,94.10
2018-07-07T07:33:48.980Z,91.00
2018-07-07T07:34:48.979Z,91.80
2018-07-07T07:35:49.109Z,95.20
2018-07-07T07:36:49.091Z,91.80
2018-07-07T07:37:49.036Z,86.80
2018-07-07T07:38:49.046Z,85.20
2018-07-07T07:39:49.036Z,81.50
2018-07-07T07:40:49.215Z,81.30
2018-07-07T07:41:49.088Z,81.00
2018-07-07T07:42:49.094Z,81.80
2018-07-07T07:43:49.080Z,82.70
2018-07-07T07:44:49.118Z,80.00
2018-07-07T07:45:49.202Z,80.30
2018-07-07T07:46:49.119Z,88.00
2018-07-07T07:47:49.126Z,89.80
2018-07-07T07:48:49.144Z,91.10
2018-07-07T07:49:49.159Z,89.50
2018-07-07T07:50:49.272Z,88.90
2018-07-07T07:51:49.208Z,87.00
2018-07-07T07:52:49.257Z,92.30
2018-07-07T07:53:49.215Z,91.20
2018-07-07T07:54:49.229Z,87.50
2018-07-07T07:55:49.349Z,90.60
2018-07-07T07:56:49.237Z,91.00
2018-07-07T07:57:49.272Z,90.30
2018-07-07T07:58:49.261Z,89.30
2018-07-07T07:59:49.274Z,90.30
2018-07-07T08:00:49.384Z,93.40
2018-07-07T08:01:49.323Z,93.40
2018-07-07T08:02:49.309Z,86.80
2018-07-07T08:03:49.321Z,89.50
2018-07-07T08:04:49.405Z,91.70
2018-07-07T08:05:49.524Z,93.10
2018-07-07T08:06:49.388Z,98.70
2018-07-07T08:07:49.373Z,103.30
2018-07-07T08:08:49.411Z,106.50
2018-07-07T08:09:49.422Z,110.00
2018-07-07T08:10:49.511Z,110.20
2018-07-07T08:11:49.424Z,109.30
2018-07-07T08:12:49.462Z,110.40
2018-07-07T08:13:49.449Z,114.50
2018-07-07T08:14:49.475Z,110.50
2018-07-07T08:15:49.578Z,110.60
2018-07-07T08:16:49.508Z,104.80
2018-07-07T08:17:49.525Z,103.20
2018-07-07T08:18:49.537Z,103.10
2018-07-07T08:19:49.530Z,102.60
2018-07-07T08:20:49.713Z,106.20
2018-07-07T08:21:49.543Z,105.00
2018-07-07T08:22:49.592Z,107.20
2018-07-07T08:23:49.581Z,105.60
2018-07-07T08:24:49.596Z,93.80
2018-07-07T08:25:49.610Z,99.60
2018-07-07T08:26:49.737Z,94.60
2018-07-07T08:27:49.616Z,86.40
2018-07-07T08:28:49.637Z,80.90
2018-07-07T08:29:49.637Z,83.00
2018-07-07T08:30:49.656Z,84.30
2018-07-07T08:31:49.690Z,82.40
2018-07-07T08:32:49.832Z,80.30
2018-07-07T08:33:49.693Z,82.20
2018-07-07T08:34:49.700Z,82.00
2018-07-07T08:35:49.732Z,79.60
2018-07-07T08:36:49.752Z,80.30
2018-07-07T08:37:49.897Z,83.50
2018-07-07T08:38:49.778Z,81.80
2018-07-07T08:39:49.767Z,84.60
2018-07-07T08:40:49.800Z,84.50
2018-07-07T08:41:49.907Z,87.60
2018-07-07T08:42:49.954Z,84.40
2018-07-07T08:43:49.812Z,84.00
2018-07-07T08:44:49.822Z,85.20
2018-07-07T08:45:49.848Z,84.30
2018-07-07T08:46:49.857Z,83.80
2018-07-07T08:47:49.993Z,84.60
2018-07-07T08:48:49.875Z,83.90
2018-07-07T08:49:49.916Z,86.20
2018-07-07T08:50:49.921Z,86.60
2018-07-07T08:51:49.934Z,87.30
2018-07-07T08:52:50.077Z,87.00
2018-07-07T08:53:49.931Z,86.40
2018-07-07T08:54:49.959Z,88.20
2018-07-07T08:55:49.960Z,89.70
2018-07-07T08:56:49.966Z,91.10
2018-07-07T08:57:50.081Z,88.50
2018-07-07T08:58:50.020Z,86.80
2018-07-07T08:59:50.001Z,89.50
2018-07-07T09:00:50.046Z,94.00
2018-07-07T09:01:50.058Z,89.70
2018-07-07T09:02:50.149Z,93.60
2018-07-07T09:03:50.059Z,94.80
2018-07-07T09:04:50.094Z,91.60
2018-07-07T09:05:50.085Z,92.00
2018-07-07T09:06:50.117Z,97.70
2018-07-07T09:07:50.203Z,98.60
2018-07-07T09:08:50.142Z,98.60
2018-07-07T09:09:50.127Z,99.10
2018-07-07T09:10:50.136Z,103.80
2018-07-07T09:11:50.159Z,102.90
2018-07-07T09:12:50.261Z,104.50
2018-07-07T09:13:50.178Z,103.10
2018-07-07T09:14:50.189Z,105.50
2018-07-07T09:15:50.193Z,104.20
2018-07-07T09:16:50.223Z,109.30
2018-07-07T09:17:50.320Z,105.80
2018-07-07T09:18:50.299Z,105.50
2018-07-07T09:19:50.269Z,106.10
2018-07-07T09:20:50.260Z,106.80
2018-07-07T09:21:50.264Z,108.70
2018-07-07T09:22:50.430Z,110.60
2018-07-07T09:23:50.317Z,113.20
2018-07-07T09:24:50.331Z,109.30
2018-07-07T09:25:50.314Z,118.20
2018-07-07T09:26:50.328Z,111.90
2018-07-07T09:27:50.464Z,117.20
2018-07-07T09:28:50.378Z,116.90
2018-07-07T09:29:50.391Z,115.60
2018-07-07T09:30:50.409Z,112.50
2018-07-07T09:31:50.411Z,119.00
2018-07-07T09:32:50.548Z,117.50
2018-07-07T09:33:50.426Z,118.70
2018-07-07T09:34:50.436Z,116.50
2018-07-07T09:35:50.433Z,117.50
2018-07-07T09:36:50.458Z,114.50
2018-07-07T09:37:50.614Z,112.10
2018-07-07T09:38:50.511Z,114.00
2018-07-07T09:39:50.479Z,114.80
2018-07-07T09:40:50.516Z,116.00
2018-07-07T09:41:50.531Z,112.60
2018-07-07T09:42:50.684Z,114.80
2018-07-07T09:43:50.526Z,109.80
2018-07-07T09:44:50.541Z,113.70
2018-07-07T09:45:50.578Z,118.10
2018-07-07T09:46:50.590Z,113.70
2018-07-07T09:47:50.577Z,114.60
2018-07-07T09:48:50.690Z,115.10
2018-07-07T09:49:50.630Z,119.70
2018-07-07T09:50:50.608Z,115.50
2018-07-07T09:51:50.618Z,113.60
2018-07-07T09:52:50.669Z,115.30
2018-07-07T09:53:50.645Z,115.10
2018-07-07T09:54:50.801Z,119.80
2018-07-07T09:55:50.696Z,118.10
2018-07-07T09:56:50.707Z,120.90
2018-07-07T09:57:50.704Z,115.70
2018-07-07T09:58:50.735Z,119.40
2018-07-07T09:59:50.864Z,123.20
2018-07-07T10:00:50.733Z,121.90
2018-07-07T10:01:50.742Z,118.30
2018-07-07T10:02:50.749Z,118.10
2018-07-07T10:03:50.761Z,121.60
2018-07-07T10:04:50.952Z,114.00
2018-07-07T10:05:50.792Z,116.40
2018-07-07T10:06:50.820Z,118.90
2018-07-07T10:07:50.815Z,123.30
2018-07-07T10:08:50.819Z,115.00
2018-07-07T10:09:50.930Z,119.10
2018-07-07T10:10:50.843Z,119.50
2018-07-07T10:11:50.884Z,112.50
2018-07-07T10:12:50.866Z,113.00
2018-07-07T10:13:50.911Z,113.40
2018-07-07T10:14:50.996Z,113.90
2018-07-07T10:15:50.921Z,113.70
2018-07-07T10:16:50.943Z,116.90
2018-07-07T10:17:50.942Z,113.80
2018-07-07T10:18:50.965Z,112.60
2018-07-07T10:19:51.115Z,117.70
2018-07-07T10:20:50.970Z,117.90
2018-07-07T10:21:50.977Z,114.50
2018-07-07T10:22:51.008Z,115.40
2018-07-07T10:23:51.023Z,116.70
2018-07-07T10:24:51.166Z,117.50
2018-07-07T10:25:51.031Z,116.00
2018-07-07T10:26:51.057Z,116.40
2018-07-07T10:27:51.069Z,114.40
2018-07-07T10:28:51.082Z,116.00
2018-07-07T10:29:51.168Z,116.00
2018-07-07T10:30:51.095Z,118.90
2018-07-07T10:31:51.092Z,115.80
2018-07-07T10:32:51.133Z,120.30
2018-07-07T10:33:51.117Z,122.00
2018-07-07T10:34:51.282Z,113.40
2018-07-07T10:35:51.140Z,111.90
2018-07-07T10:36:51.153Z,112.10
2018-07-07T10:37:51.193Z,123.10
2018-07-07T10:38:51.207Z,118.80
2018-07-07T10:39:51.309Z,121.00
2018-07-07T10:40:51.206Z,122.80
2018-07-07T10:41:51.226Z,114.10
2018-07-07T10:42:51.251Z,114.80
2018-07-07T10:43:51.264Z,106.50
2018-07-07T10:44:51.355Z,104.00
2018-07-07T10:45:51.472Z,109.80
2018-07-07T10:46:51.307Z,111.60
2018-07-07T10:47:51.323Z,105.60
2018-07-07T10:48:51.312Z,103.40
2018-07-07T10:49:51.478Z,104.00
2018-07-07T10:50:51.341Z,107.10
2018-07-07T10:51:51.354Z,101.50
2018-07-07T10:52:51.351Z,104.10
2018-07-07T10:53:51.377Z,95.10
2018-07-07T10:54:51.480Z,100.30
2018-07-07T10:55:51.417Z,101.10
2018-07-07T10:56:51.408Z,106.50
2018-07-07T10:57:51.428Z,108.20
2018-07-07T10:58:51.503Z,104.70
2018-07-07T10:59:51.574Z,108.90
2018-07-07T11:00:51.491Z,107.10
2018-07-07T11:01:51.496Z,101.50
2018-07-07T11:02:51.493Z,110.50
2018-07-07T11:03:51.497Z,109.40
2018-07-07T11:04:51.614Z,108.70
2018-07-07T11:05:51.528Z,112.00
2018-07-07T11:06:51.540Z,111.10
2018-07-07T11:07:51.555Z,114.60
2018-07-07T11:08:51.593Z,111.60
2018-07-07T11:09:51.703Z,114.70
2018-07-07T11:10:51.591Z,105.70
2018-07-07T11:11:51.698Z,106.40
2018-07-07T11:12:51.630Z,106.20
2018-07-07T11:13:51.658Z,110.50
2018-07-07T11:14:51.748Z,104.30
2018-07-07T11:15:51.660Z,109.10
2018-07-07T11:16:51.707Z,106.40
2018-07-07T11:17:51.697Z,107.20
2018-07-07T11:18:51.735Z,110.20
2018-07-07T11:19:51.866Z,102.20
2018-07-07T11:20:51.731Z,117.80
2018-07-07T11:21:51.744Z,107.70
2018-07-07T11:22:51.786Z,114.80
2018-07-07T11:23:51.772Z,110.30
2018-07-07T11:24:51.936Z,116.10
2018-07-07T11:25:51.833Z,110.50
2018-07-07T11:26:51.827Z,109.90
2018-07-07T11:27:51.844Z,104.20
2018-07-07T11:28:51.842Z,104.70
2018-07-07T11:29:52.180Z,103.50
2018-07-07T11:30:51.891Z,100.10
2018-07-07T11:31:51.918Z,100.10
2018-07-07T11:32:51.905Z,99.60
2018-07-07T11:33:51.920Z,100.00
2018-07-07T11:34:52.095Z,96.10
2018-07-07T11:35:51.965Z,91.00
2018-07-07T11:36:51.972Z,89.30
2018-07-07T11:37:52.011Z,95.90
2018-07-07T11:38:52.029Z,88.70
2018-07-07T11:39:52.114Z,90.60
2018-07-07T11:40:52.032Z,90.90
2018-07-07T11:41:52.043Z,84.40
2018-07-07T11:42:52.057Z,85.70
2018-07-07T11:43:52.103Z,83.10
2018-07-07T11:44:52.185Z,79.70
2018-07-07T11:45:52.104Z,81.50
2018-07-07T11:46:52.146Z,85.60
2018-07-07T11:47:52.147Z,83.50
2018-07-07T11:48:52.162Z,80.90
2018-07-07T11:49:52.316Z,80.20
2018-07-07T11:50:52.188Z,78.10
2018-07-07T11:51:52.202Z,76.50
2018-07-07T11:52:52.215Z,72.70
2018-07-07T11:53:52.255Z,72.90
2018-07-07T11:54:52.411Z,71.80
2018-07-07T11:55:52.286Z,78.30
2018-07-07T11:56:52.275Z,72.70
2018-07-07T11:57:52.322Z,73.00
2018-07-07T11:58:52.312Z,72.80
2018-07-07T11:59:52.425Z,74.80
2018-07-07T12:00:52.346Z,71.30
2018-07-07T12:01:52.436Z,65.40
2018-07-07T12:02:52.383Z,62.20
2018-07-07T12:03:52.421Z,62.70
2018-07-07T12:04:52.636Z,66.40
2018-07-07T12:05:52.431Z,63.50
2018-07-07T12:06:52.447Z,57.20
2018-07-07T12:08:00.830Z,61.80
2018-07-07T12:08:52.484Z,57.70
2018-07-07T12:09:52.658Z,62.40
2018-07-07T12:10:52.517Z,60.50
2018-07-07T12:11:52.534Z,59.10
2018-07-07T12:12:52.545Z,58.30
2018-07-07T12:13:52.579Z,60.00
2018-07-07T12:14:52.618Z,62.90
2018-07-07T12:15:52.757Z,66.80
2018-07-07T12:16:52.646Z,64.60
2018-07-07T12:17:52.666Z,62.90
2018-07-07T12:18:52.660Z,59.90
2018-07-07T12:19:52.683Z,61.90
2018-07-07T12:20:52.853Z,65.60
2018-07-07T12:21:52.752Z,65.00
2018-07-07T12:22:52.761Z,63.40
2018-07-07T12:23:52.748Z,61.20
2018-07-07T12:24:52.852Z,59.60
2018-07-07T12:25:52.963Z,61.40
2018-07-07T12:26:52.806Z,58.40
2018-07-07T12:27:52.848Z,56.60
2018-07-07T12:28:52.838Z,52.20
2018-07-07T12:29:52.867Z,55.90
2018-07-07T12:30:53.009Z,54.20
2018-07-07T12:31:52.926Z,57.40
2018-07-07T12:32:52.918Z,55.70
2018-07-07T12:33:52.953Z,59.80
2018-07-07T12:34:52.982Z,61.70
2018-07-07T12:35:53.122Z,60.00
2018-07-07T12:36:53.019Z,59.80
2018-07-07T12:37:53.039Z,60.30
2018-07-07T12:38:53.053Z,57.60
2018-07-07T12:39:53.048Z,57.10
2018-07-07T12:40:53.241Z,55.90
2018-07-07T12:41:53.096Z,55.20
2018-07-07T12:42:53.105Z,54.50
2018-07-07T12:43:53.154Z,52.10